createdAt,value
2019-03-15T00:01:01.411Z,96388.56
2019-03-15T00:03:31.459Z,96380.53
2019-03-15T00:06:01.377Z,96379.87
2019-03-15T00:08:31.428Z,96377.97
2019-03-15T00:11:01.288Z,96376.03
2019-03-15T00:13:31.233Z,96369.92
2019-03-15T00:16:01.891Z,96365.80
2019-03-15T00:18:31.995Z,96350.78
2019-03-15T00:21:01.835Z,96372.64
2019-03-15T00:23:31.614Z,96383.04
2019-03-15T00:26:01.384Z,96391.16
2019-03-15T00:28:31.202Z,96379.10
2019-03-15T00:31:01.033Z,96375.89
2019-03-15T00:33:30.791Z,96391.23
2019-03-15T00:36:00.598Z,96382.67
2019-03-15T00:38:30.376Z,96387.29
2019-03-15T00:41:00.145Z,96386.70
2019-03-15T00:43:29.956Z,96378.38
2019-03-15T00:45:59.731Z,96366.73
2019-03-15T00:48:29.542Z,96375.53
2019-03-15T00:50:59.373Z,96385.53
2019-03-15T00:53:29.121Z,96396.92
2019-03-15T00:55:58.916Z,96405.45
2019-03-15T00:58:28.727Z,96408.40
2019-03-15T01:00:58.500Z,96411.35
2019-03-15T01:03:28.362Z,96410.22
2019-03-15T01:06:00.774Z,96404.61
2019-03-15T01:08:30.547Z,96407.03
2019-03-15T01:11:00.307Z,96404.31
2019-03-15T01:13:31.183Z,96401.01
2019-03-15T01:16:01.022Z,96392.30
2019-03-15T01:18:31.045Z,96397.19
2019-03-15T01:21:00.850Z,96409.50
2019-03-15T01:23:30.638Z,96417.63
2019-03-15T01:26:00.280Z,96413.16
2019-03-15T01:28:30.117Z,96425.53
2019-03-15T01:30:59.941Z,96431.77
2019-03-15T01:33:29.747Z,96433.56
2019-03-15T01:35:59.663Z,96442.23
2019-03-15T01:38:29.416Z,96446.63
2019-03-15T01:40:59.199Z,96435.54
2019-03-15T01:43:29.077Z,96432.11
2019-03-15T01:45:58.861Z,96434.25
2019-03-15T01:48:28.630Z,96429.56
2019-03-15T01:50:58.440Z,96435.59
2019-03-15T01:53:28.236Z,96435.54
2019-03-15T01:55:59.017Z,96434.20
2019-03-15T01:58:28.863Z,96422.53
2019-03-15T02:00:58.658Z,96432.86
2019-03-15T02:03:28.448Z,96452.70
2019-03-15T02:05:58.309Z,96443.27
2019-03-15T02:08:28.091Z,96441.27
2019-03-15T02:10:58.762Z,96437.17
2019-03-15T02:13:28.729Z,96436.36
2019-03-15T02:15:59.041Z,96453.40
2019-03-15T02:18:28.800Z,96456.35
2019-03-15T02:20:58.625Z,96461.61
2019-03-15T02:23:28.404Z,96448.47
2019-03-15T02:25:58.201Z,96435.23
2019-03-15T02:28:27.991Z,96438.08
2019-03-15T02:30:57.801Z,96456.89
2019-03-15T02:33:27.617Z,96472.67
2019-03-15T02:35:57.433Z,96486.06
2019-03-15T02:38:27.324Z,96477.07
2019-03-15T02:40:57.181Z,96478.92
2019-03-15T02:43:27.003Z,96475.23
2019-03-15T02:45:56.820Z,96462.73
2019-03-15T02:48:26.551Z,96468.63
2019-03-15T02:50:56.599Z,96465.16
2019-03-15T02:53:26.407Z,96484.16
2019-03-15T02:55:56.194Z,96483.41
2019-03-15T02:58:26.039Z,96487.26
2019-03-15T03:00:55.819Z,96483.61
2019-03-15T03:03:25.607Z,96478.44
2019-03-15T03:05:55.469Z,96492.87
2019-03-15T03:08:25.254Z,96494.35
2019-03-15T03:10:56.011Z,96496.11
2019-03-15T03:13:26.134Z,96500.66
2019-03-15T03:15:55.972Z,96512.80
2019-03-15T03:18:25.717Z,96514.28
2019-03-15T03:20:55.574Z,96504.41
2019-03-15T03:23:25.299Z,96514.66
2019-03-15T03:25:55.104Z,96522.05
2019-03-15T03:28:24.995Z,96521.53
2019-03-15T03:30:54.807Z,96521.63
2019-03-15T03:33:24.624Z,96534.16
2019-03-15T03:35:54.452Z,96536.39
2019-03-15T03:38:24.207Z,96534.41
2019-03-15T03:40:54.002Z,96530.20
2019-03-15T03:43:23.876Z,96530.78
2019-03-15T03:45:53.644Z,96531.13
2019-03-15T03:48:23.420Z,96541.88
2019-03-15T03:50:54.800Z,96550.44
2019-03-15T03:53:24.944Z,96559.61
2019-03-15T03:55:54.899Z,96559.61
2019-03-15T03:58:24.774Z,96565.98
2019-03-15T04:00:54.565Z,96574.42
2019-03-15T04:03:24.624Z,96558.31
2019-03-15T04:05:54.437Z,96571.81
2019-03-15T04:08:24.167Z,96566.28
2019-03-15T04:10:54.719Z,96561.50
2019-03-15T04:13:24.533Z,96573.55
2019-03-15T04:15:54.342Z,96580.89
2019-03-15T04:18:24.110Z,96591.23
2019-03-15T04:20:53.955Z,96603.02
2019-03-15T04:23:23.907Z,96603.02
2019-03-15T04:25:53.988Z,96593.91
2019-03-15T04:28:25.454Z,96584.48
2019-03-15T04:30:55.248Z,96577.19
2019-03-15T04:33:25.111Z,96581.56
2019-03-15T04:35:54.936Z,96578.20
2019-03-15T04:38:24.689Z,96601.06
2019-03-15T04:40:54.460Z,96622.20
2019-03-15T04:43:24.251Z,96617.09
2019-03-15T04:45:54.147Z,96618.45
2019-03-15T04:48:23.946Z,96627.71
2019-03-15T04:50:53.749Z,96625.53
2019-03-15T04:53:23.520Z,96634.57
2019-03-15T04:55:53.291Z,96652.56
2019-03-15T04:58:23.153Z,96666.23
